Time;durP1;ratioP1;P1;durP2;ratioP2;P2;SDS_P1;SDS_P2;PMS_P1;PMS_P2;Temp;Humidity;BMP_temperature;BMP_pressure;BME280_temperature;BME280_humidity;BME280_pressure;Samples;Min_cycle;Max_cycle;Signal;HPM_P1;HPM_P2
2021/05/22 00:01:48;;;;;;;6.57;2.07;;;;;;;-144.99;78.49;52370.63;5095083;28;20207;-61
2021/05/22 00:04:14;;;;;;;6.23;2.30;;;;;;;-144.99;78.47;52370.63;5096822;28;20755;-62
2021/05/22 00:06:40;;;;;;;8.07;1.50;;;;;;;-144.99;78.47;52388.97;5092310;28;20215;-62
2021/05/22 00:09:09;;;;;;;14.83;5.33;;;;;;;-144.99;78.29;52356.38;5098551;28;20220;-61
2021/05/22 00:11:41;;;;;;;4.40;1.53;;;;;;;-144.99;78.13;52350.25;5090704;28;20249;-62
2021/05/22 00:14:10;;;;;;;13.33;2.77;;;;;;;-144.99;77.95;52362.50;5101061;28;20604;-62
2021/05/22 00:16:36;;;;;;;4.40;2.27;;;;;;;-144.99;77.59;52346.19;5097099;27;20591;-61
2021/05/22 00:19:04;;;;;;;8.37;2.13;;;;;;;-144.99;76.75;52366.56;5097869;28;20219;-64
2021/05/22 00:21:36;;;;;;;9.27;1.90;;;;;;;-144.99;76.55;52382.88;5099030;28;20628;-62
2021/05/22 00:24:05;;;;;;;2.87;1.17;;;;;;;-144.99;76.49;52346.19;5096707;28;20234;-64
2021/05/22 00:26:36;;;;;;;7.43;3.57;;;;;;;-144.99;76.38;52372.69;5094656;28;20227;-67
2021/05/22 00:29:03;;;;;;;6.73;1.70;;;;;;;-144.99;76.31;52358.41;5097907;28;20204;-63
2021/05/22 00:31:29;;;;;;;5.00;1.13;;;;;;;-144.99;76.08;52395.09;5094742;28;20600;-62
2021/05/22 00:33:58;;;;;;;4.50;2.83;;;;;;;-144.99;76.09;52413.44;5099266;28;20234;-62
2021/05/22 00:36:25;;;;;;;3.97;2.80;;;;;;;-144.99;76.23;52386.94;5094018;28;20584;-62
2021/05/22 00:38:54;;;;;;;5.77;1.83;;;;;;;-144.99;76.08;52321.72;5095453;28;20210;-62
2021/05/22 00:41:23;;;;;;;8.77;4.07;;;;;;;-144.99;76.20;52403.25;5097669;28;20222;-62
2021/05/22 00:43:49;;;;;;;2.10;1.13;;;;;;;-144.99;76.26;52338.03;5092856;28;20304;-61
2021/05/22 00:46:18;;;;;;;1.80;1.67;;;;;;;-144.99;76.60;52403.25;5100123;28;20205;-62
2021/05/22 00:48:46;;;;;;;5.90;1.70;;;;;;;-144.99;76.57;52382.88;5096960;28;20201;-62
2021/05/22 00:51:13;;;;;;;6.83;1.53;;;;;;;-144.99;76.50;52344.16;5094578;28;20559;-64
2021/05/22 00:53:43;;;;;;;3.83;1.37;;;;;;;-144.99;76.75;52378.78;5098181;28;20203;-64
2021/05/22 00:56:09;;;;;;;3.30;1.23;;;;;;;-144.99;76.66;52350.25;5097548;28;20208;-60
2021/05/22 00:58:38;;;;;;;8.30;1.67;;;;;;;-144.99;76.73;52374.72;5097965;28;20264;-61
2021/05/22 01:01:04;;;;;;;2.77;1.40;;;;;;;-144.99;76.47;52386.94;5100437;28;20215;-61
2021/05/22 01:03:37;;;;;;;6.77;1.93;;;;;;;-144.99;76.41;52378.78;5099528;28;20219;-61
2021/05/22 01:06:14;;;;;;;9.77;1.73;;;;;;;-144.99;76.33;52411.41;5094540;27;20670;-61
2021/05/22 01:08:45;;;;;;;2.70;1.10;;;;;;;-144.99;76.08;52401.22;5094963;28;20584;-59
2021/05/22 01:11:17;;;;;;;9.10;2.10;;;;;;;-144.99;75.63;52407.31;5099935;28;20305;-60
2021/05/22 01:13:47;;;;;;;4.33;1.50;;;;;;;-144.99;75.57;52329.88;5095284;28;20215;-61
2021/05/22 01:16:17;;;;;;;8.07;1.80;;;;;;;-144.99;75.60;52368.59;5097885;28;20232;-59
2021/05/22 01:18:46;;;;;;;3.73;0.97;;;;;;;-144.99;75.44;52378.78;5094678;28;20214;-59
2021/05/22 01:21:13;;;;;;;6.20;2.00;;;;;;;-144.99;75.44;52354.34;5096334;28;20207;-59
2021/05/22 01:23:49;;;;;;;5.23;1.40;;;;;;;-144.99;74.96;52358.41;5096638;28;20711;-57
2021/05/22 01:26:16;;;;;;;5.57;1.80;;;;;;;-144.99;74.08;52356.38;5093181;28;20212;-59
2021/05/22 01:28:44;;;;;;;5.23;1.50;;;;;;;-144.99;74.19;52338.03;5095785;28;20259;-59
2021/05/22 01:31:14;;;;;;;6.17;2.83;;;;;;;-144.99;74.17;52346.19;5091636;28;20208;-59
2021/05/22 01:33:40;;;;;;;4.40;1.50;;;;;;;-144.99;74.37;52346.19;5090290;28;20533;-59
2021/05/22 01:36:10;;;;;;;3.50;1.37;;;;;;;-144.99;74.25;52382.88;5093943;28;20208;-60
2021/05/22 01:38:41;;;;;;;8.17;1.70;;;;;;;-144.99;74.30;52354.34;5092267;28;20222;-60
2021/05/22 01:41:13;;;;;;;6.17;2.40;;;;;;;-144.99;74.23;52366.56;5093901;28;20212;-60
2021/05/22 01:43:46;;;;;;;3.90;1.37;;;;;;;-144.99;74.48;52399.19;5099255;28;20218;-60
2021/05/22 01:46:15;;;;;;;3.33;1.10;;;;;;;-144.99;74.44;52391.03;5097915;28;20208;-59
2021/05/22 01:48:44;;;;;;;7.53;2.77;;;;;;;-144.99;74.85;52382.88;5094964;28;20212;-60
2021/05/22 01:51:15;;;;;;;2.43;1.10;;;;;;;-144.99;74.87;52370.63;5091703;28;20204;-61
2021/05/22 01:53:42;;;;;;;8.00;1.83;;;;;;;-144.99;75.16;52346.19;5089502;28;20645;-60
2021/05/22 01:56:10;;;;;;;5.33;1.30;;;;;;;-144.99;75.25;52386.94;5093001;28;20203;-60
2021/05/22 01:58:37;;;;;;;15.57;2.13;;;;;;;-144.99;75.45;52338.03;5090525;28;21436;-60
2021/05/22 02:01:07;;;;;;;7.20;1.30;;;;;;;-144.99;75.60;52376.75;5095358;28;20255;-61
2021/05/22 02:03:36;;;;;;;8.20;1.87;;;;;;;-144.99;75.66;52407.31;5091361;28;20250;-59
2021/05/22 02:06:10;;;;;;;3.57;1.30;;;;;;;-144.99;75.84;52354.34;5095253;28;20211;-60
2021/05/22 02:08:44;;;;;;;3.40;1.33;;;;;;;-144.99;76.03;52395.09;4851569;27;10000923;-60
2021/05/22 02:11:18;;;;;;;2.43;1.10;;;;;;;-144.99;75.97;52374.72;5090979;28;20909;-61
2021/05/22 02:13:48;;;;;;;4.73;1.27;;;;;;;-144.99;76.41;52395.09;5098736;28;20223;-60
2021/05/22 02:16:17;;;;;;;3.67;1.33;;;;;;;-144.99;76.69;52366.56;5092525;28;20279;-60
2021/05/22 02:18:47;;;;;;;3.80;1.30;;;;;;;-144.99;76.84;52370.63;5098036;28;20212;-59
2021/05/22 02:21:16;;;;;;;4.20;1.60;;;;;;;-144.99;77.10;52366.56;5100947;28;20211;-58
2021/05/22 02:23:46;;;;;;;5.37;1.63;;;;;;;-144.99;77.27;52374.72;5092908;28;20223;-58
2021/05/22 02:26:16;;;;;;;6.10;1.70;;;;;;;-144.99;77.76;52333.94;5095367;28;20201;-59
2021/05/22 02:28:44;;;;;;;11.67;3.23;;;;;;;-144.99;78.08;52370.63;5103236;28;21588;-59
2021/05/22 02:31:11;;;;;;;6.13;1.17;;;;;;;-144.99;78.27;52338.03;5097655;28;20718;-58
2021/05/22 02:33:38;;;;;;;3.40;1.00;;;;;;;-144.99;78.40;52378.78;5098454;28;20459;-58
2021/05/22 02:36:07;;;;;;;3.53;1.60;;;;;;;-144.99;78.47;52399.19;5098913;28;20212;-60
2021/05/22 02:38:41;;;;;;;8.57;1.30;;;;;;;-144.99;78.59;52403.25;5098276;28;20895;-59
2021/05/22 02:41:09;;;;;;;4.63;1.33;;;;;;;-144.99;78.66;52362.50;5096103;28;20204;-59
2021/05/22 02:43:38;;;;;;;5.37;1.33;;;;;;;-144.99;78.50;52378.78;5096664;28;20681;-62
2021/05/22 02:46:06;;;;;;;2.37;1.13;;;;;;;-144.99;78.50;52378.78;5096648;28;20280;-62
2021/05/22 02:48:36;;;;;;;5.50;2.03;;;;;;;-144.99;78.41;52362.50;5098660;28;20226;-62
2021/05/22 02:51:07;;;;;;;4.30;1.03;;;;;;;-144.99;78.25;52350.25;5095635;28;20578;-61
2021/05/22 02:53:37;;;;;;;7.50;1.60;;;;;;;-144.99;78.27;52374.72;5098608;28;20204;-60
2021/05/22 02:56:05;;;;;;;4.80;1.40;;;;;;;-144.99;78.50;52366.56;5098541;28;20266;-62
2021/05/22 02:58:37;;;;;;;3.40;1.20;;;;;;;-144.99;78.61;52321.72;5095488;28;20232;-61
2021/05/22 03:01:06;;;;;;;4.10;1.53;;;;;;;-144.99;78.57;52378.78;5098396;28;20449;-62
2021/05/22 03:03:36;;;;;;;7.43;1.37;;;;;;;-144.99;78.90;52305.41;5096474;28;20211;-64
2021/05/22 03:06:06;;;;;;;4.70;1.10;;;;;;;-144.99;79.00;52388.97;5094940;28;20200;-63
2021/05/22 03:08:45;;;;;;;3.43;2.60;;;;;;;-144.99;78.82;52409.38;5094783;28;20666;-64
2021/05/22 03:11:12;;;;;;;4.17;1.77;;;;;;;-144.99;78.64;52395.09;5095124;28;20200;-64
2021/05/22 03:13:41;;;;;;;2.93;1.57;;;;;;;-144.99;78.78;52358.41;5102979;28;20289;-63
2021/05/22 03:16:07;;;;;;;7.40;2.63;;;;;;;-144.99;78.73;52366.56;5099569;28;20200;-64
2021/05/22 03:18:39;;;;;;;8.43;2.20;;;;;;;-144.99;78.85;52342.09;5094654;28;20207;-63
2021/05/22 03:21:06;;;;;;;6.57;1.43;;;;;;;-144.99;78.86;52380.84;5101665;28;20222;-62
2021/05/22 03:23:35;;;;;;;7.23;2.33;;;;;;;-144.99;78.91;52354.34;5096386;28;20658;-65
2021/05/22 03:26:01;;;;;;;4.67;2.80;;;;;;;-144.99;79.17;52395.09;5104077;28;20203;-61
2021/05/22 03:28:27;;;;;;;8.30;1.27;;;;;;;-144.99;79.23;52391.03;5099149;28;20215;-60
2021/05/22 03:30:53;;;;;;;7.10;1.30;;;;;;;-144.99;79.32;52354.34;5094122;28;20638;-60
2021/05/22 03:33:22;;;;;;;3.83;1.70;;;;;;;-144.99;79.13;52391.03;5098058;28;20219;-59
2021/05/22 03:35:51;;;;;;;3.67;1.43;;;;;;;-144.99;79.42;52338.03;5101130;28;20214;-63
2021/05/22 03:38:23;;;;;;;8.70;2.60;;;;;;;-144.99;79.49;52362.50;5099709;28;20239;-62
2021/05/22 03:40:49;;;;;;;2.23;0.90;;;;;;;-144.99;79.54;52338.03;5099467;28;21669;-64
2021/05/22 03:43:15;;;;;;;3.37;1.27;;;;;;;-144.99;79.42;52362.50;5097838;28;20215;-63
2021/05/22 03:45:44;;;;;;;4.13;1.60;;;;;;;-144.99;79.71;52382.88;5094816;28;20444;-63
2021/05/22 03:48:10;;;;;;;6.23;2.80;;;;;;;-144.99;79.53;52354.34;5101056;28;20227;-63
2021/05/22 03:50:39;;;;;;;3.23;1.90;;;;;;;-144.99;79.55;52382.88;5100271;28;20208;-63
2021/05/22 03:53:07;;;;;;;6.13;1.37;;;;;;;-144.99;79.35;52356.38;5105213;28;20203;-63
2021/05/22 03:55:34;;;;;;;7.00;1.97;;;;;;;-144.99;79.27;52374.72;5102053;28;20673;-63
2021/05/22 03:58:03;;;;;;;4.60;2.13;;;;;;;-144.99;79.15;52399.19;5099811;28;20236;-63
2021/05/22 04:00:29;;;;;;;6.40;1.73;;;;;;;-144.99;79.18;52342.09;5102816;28;20212;-64
2021/05/22 04:02:55;;;;;;;2.27;0.80;;;;;;;-144.99;78.91;52325.81;5105094;28;20454;-64
2021/05/22 04:05:21;;;;;;;4.70;1.37;;;;;;;-144.99;78.88;52415.47;5103478;28;20208;-64
2021/05/22 04:07:47;;;;;;;3.10;1.90;;;;;;;-144.99;78.80;52348.22;5098304;27;20235;-64
2021/05/22 04:10:14;;;;;;;4.97;1.13;;;;;;;-144.99;78.57;52350.25;5106370;28;20211;-63
2021/05/22 04:12:43;;;;;;;5.63;1.83;;;;;;;-144.99;78.71;52338.03;5107691;28;20249;-63
2021/05/22 04:15:11;;;;;;;3.93;1.60;;;;;;;-144.99;78.54;52403.25;5102054;28;20203;-64
2021/05/22 04:17:40;;;;;;;3.93;1.87;;;;;;;-144.99;78.33;52350.25;5099720;28;20227;-63
2021/05/22 04:20:07;;;;;;;3.33;1.20;;;;;;;-144.99;78.29;52317.66;5102322;28;20470;-63
2021/05/22 04:22:33;;;;;;;7.93;2.60;;;;;;;-144.99;77.75;52346.19;5103082;28;20215;-64
2021/05/22 04:24:59;;;;;;;3.70;1.43;;;;;;;-144.99;77.65;52354.34;5107560;28;20200;-63
2021/05/22 04:27:27;;;;;;;6.20;1.57;;;;;;;-144.99;77.58;52346.19;5105827;28;20223;-64
2021/05/22 04:30:00;;;;;;;2.47;0.97;;;;;;;-144.99;77.34;52338.03;5102498;28;20208;-63
2021/05/22 04:32:26;;;;;;;4.23;0.93;;;;;;;-144.99;77.26;52370.63;5097845;28;20265;-63
2021/05/22 04:34:52;;;;;;;7.23;4.00;;;;;;;-144.99;76.77;52354.34;5098426;28;20693;-62
2021/05/22 04:37:20;;;;;;;9.80;1.93;;;;;;;-144.99;76.53;52370.63;5101175;28;20296;-60
2021/05/22 04:39:49;;;;;;;3.87;1.30;;;;;;;-144.99;76.33;52370.63;5103094;28;20222;-60
2021/05/22 04:42:16;;;;;;;7.60;1.53;;;;;;;-144.99;76.33;52391.03;5099447;28;20291;-60
2021/05/22 04:44:45;;;;;;;3.47;2.37;;;;;;;-144.99;76.41;52354.34;5105463;28;20212;-60
2021/05/22 04:47:12;;;;;;;5.23;1.40;;;;;;;-144.99;75.97;52370.63;5100888;28;20219;-62
2021/05/22 04:49:38;;;;;;;3.80;1.07;;;;;;;-144.99;76.29;52350.25;5099517;28;20211;-62
2021/05/22 04:52:07;;;;;;;3.03;1.00;;;;;;;-144.99;75.83;52336.00;5103882;28;20256;-61
2021/05/22 04:54:36;;;;;;;2.57;1.10;;;;;;;-144.99;75.75;52354.34;5100868;28;20208;-60
2021/05/22 04:57:02;;;;;;;7.47;1.33;;;;;;;-144.99;75.73;52393.06;5102020;28;20228;-58
2021/05/22 04:59:28;;;;;;;4.17;1.20;;;;;;;-144.99;75.50;52338.03;5102444;28;20203;-60
2021/05/22 05:01:54;;;;;;;4.23;2.17;;;;;;;-144.99;75.17;52352.28;5100965;28;20216;-60
2021/05/22 05:04:23;;;;;;;4.13;1.33;;;;;;;-144.99;75.07;52354.34;5096799;28;20708;-58
2021/05/22 05:06:50;;;;;;;6.13;3.13;;;;;;;-144.99;74.80;52366.56;5111046;28;20230;-59
2021/05/22 05:09:16;;;;;;;15.10;2.97;;;;;;;-144.99;74.52;52378.78;5098079;28;20234;-59
2021/05/22 05:11:45;;;;;;;3.63;1.10;;;;;;;-144.99;74.23;52350.25;5105410;28;20204;-58
2021/05/22 05:14:16;;;;;;;2.77;1.00;;;;;;;-144.99;74.21;52374.72;5100908;28;20211;-60
2021/05/22 05:16:42;;;;;;;1.77;1.10;;;;;;;-144.99;74.02;52350.25;5104065;28;20235;-60
2021/05/22 05:19:14;;;;;;;4.77;2.33;;;;;;;-144.99;74.38;52342.09;5103357;28;20524;-62
2021/05/22 05:21:43;;;;;;;2.80;1.20;;;;;;;-144.99;73.57;52378.78;5112762;28;20204;-61
2021/05/22 05:24:09;;;;;;;2.73;1.03;;;;;;;-144.99;73.52;52370.63;5103388;28;20212;-61
2021/05/22 05:26:38;;;;;;;5.57;1.00;;;;;;;-144.99;73.27;52293.19;5097977;28;20216;-61
2021/05/22 05:29:09;;;;;;;3.57;1.63;;;;;;;-144.99;73.22;52317.66;5111127;28;20196;-62
2021/05/22 05:31:38;;;;;;;8.10;1.50;;;;;;;-144.99;72.70;52362.50;5103725;28;20226;-63
2021/05/22 05:34:07;;;;;;;8.20;2.20;;;;;;;-144.99;72.80;52329.88;5107380;28;20385;-64
2021/05/22 05:36:37;;;;;;;4.33;1.17;;;;;;;-144.99;72.61;52293.19;5102579;28;20230;-63
2021/05/22 05:39:10;;;;;;;6.67;1.43;;;;;;;-144.99;72.49;52358.41;5105880;28;20209;-64
2021/05/22 05:41:41;;;;;;;13.27;5.93;;;;;;;-144.99;71.92;52325.81;5102914;28;20203;-60
2021/05/22 05:44:10;;;;;;;5.63;1.60;;;;;;;-144.99;72.31;52329.88;5098778;28;20214;-60
2021/05/22 05:46:37;;;;;;;7.97;2.47;;;;;;;-144.99;72.15;52329.88;5100272;28;20235;-60
2021/05/22 05:49:08;;;;;;;3.50;1.13;;;;;;;-144.99;71.85;52338.03;5099894;28;20203;-60
2021/05/22 05:51:34;;;;;;;2.97;1.10;;;;;;;-144.99;71.93;52333.94;5102416;28;20265;-59
2021/05/22 05:54:03;;;;;;;13.63;3.40;;;;;;;-144.99;71.77;52309.50;5093350;28;20575;-61
2021/05/22 05:56:39;;;;;;;4.00;1.57;;;;;;;-144.99;71.16;52331.91;5103634;28;20293;-61
2021/05/22 05:59:07;;;;;;;3.00;1.10;;;;;;;-144.99;71.34;52325.81;5092011;28;20550;-60
2021/05/22 06:01:36;;;;;;;8.37;1.37;;;;;;;-144.99;71.29;52321.72;5103044;28;20211;-61
2021/05/22 06:04:05;;;;;;;6.30;1.93;;;;;;;-144.99;71.08;52350.25;5102693;28;20742;-63
2021/05/22 06:06:33;;;;;;;7.23;2.40;;;;;;;-144.99;71.00;52325.81;5103893;28;20223;-63
2021/05/22 06:09:02;;;;;;;4.50;1.37;;;;;;;-144.99;70.87;52315.59;5105601;28;20356;-60
2021/05/22 06:11:30;;;;;;;4.83;1.70;;;;;;;-144.99;71.35;52319.69;5107603;28;20277;-63
2021/05/22 06:13:59;;;;;;;3.77;0.93;;;;;;;-144.99;70.76;52362.50;5104153;27;20268;-64
2021/05/22 06:16:28;;;;;;;3.63;1.67;;;;;;;-144.99;70.48;52340.06;5107323;28;20208;-64
2021/05/22 06:18:55;;;;;;;5.53;1.60;;;;;;;-144.99;70.38;52317.66;5099622;28;20207;-63
2021/05/22 06:21:24;;;;;;;1.80;0.80;;;;;;;-144.99;70.25;52317.66;5107403;28;20293;-63
2021/05/22 06:23:53;;;;;;;5.67;1.40;;;;;;;-144.99;70.09;52329.88;5103198;28;20349;-60
2021/05/22 06:26:24;;;;;;;4.20;2.00;;;;;;;-144.99;70.04;52325.81;5103821;28;20249;-66
2021/05/22 06:28:55;;;;;;;3.13;1.43;;;;;;;-144.99;70.16;52374.72;5105632;28;20196;-67
2021/05/22 06:31:25;;;;;;;6.20;1.40;;;;;;;-144.99;69.35;52350.25;5098471;28;20200;-62
2021/05/22 06:33:51;;;;;;;5.80;1.67;;;;;;;-144.99;69.40;52313.56;5103764;28;20200;-61
2021/05/22 06:36:17;;;;;;;4.57;1.60;;;;;;;-144.99;69.27;52313.56;5106130;28;20600;-60
2021/05/22 06:38:49;;;;;;;2.93;1.33;;;;;;;-144.99;68.99;52317.66;5105865;28;20400;-61
2021/05/22 06:41:17;;;;;;;4.73;1.10;;;;;;;-144.99;68.88;52333.94;5106858;27;20218;-64
2021/05/22 06:43:46;;;;;;;7.47;1.70;;;;;;;-144.99;69.21;52325.81;5105389;28;20214;-66
2021/05/22 06:48:58;;;;;;;2.10;1.30;;;;;;;-144.99;68.34;52303.38;5101334;28;20238;-64
2021/05/22 06:51:27;;;;;;;2.93;0.80;;;;;;;-144.99;68.56;52327.84;5099993;28;20212;-64
2021/05/22 06:53:59;;;;;;;5.97;1.40;;;;;;;-144.99;68.23;52295.22;5103070;28;20662;-65
2021/05/22 06:56:28;;;;;;;4.30;1.60;;;;;;;-144.99;67.96;52358.41;5102251;28;20225;-65
2021/05/22 06:58:57;;;;;;;2.03;1.13;;;;;;;-144.99;67.68;52338.03;5102624;28;20238;-63
2021/05/22 07:01:26;;;;;;;3.50;1.00;;;;;;;-144.99;67.33;52289.13;5101006;28;20204;-65
2021/05/22 07:03:53;;;;;;;7.73;2.00;;;;;;;-144.99;68.03;52354.34;5099514;28;20599;-63
2021/05/22 07:06:26;;;;;;;6.03;1.67;;;;;;;-144.99;67.25;52309.50;5098875;28;20213;-62
2021/05/22 07:08:58;;;;;;;6.23;1.27;;;;;;;-144.99;67.26;52321.72;5099279;28;20195;-61
2021/05/22 07:11:26;;;;;;;5.40;1.83;;;;;;;-144.99;67.32;52305.41;5109787;28;20577;-61
2021/05/22 07:13:57;;;;;;;5.53;1.50;;;;;;;-144.99;67.77;52301.34;5100754;28;20309;-61
2021/05/22 07:16:26;;;;;;;3.90;1.20;;;;;;;-144.99;68.14;52342.09;5103398;28;20234;-62
2021/05/22 07:18:53;;;;;;;4.03;1.07;;;;;;;-144.99;68.23;52354.34;5095163;28;20215;-62
2021/05/22 07:21:22;;;;;;;4.83;1.77;;;;;;;-144.99;68.48;52325.81;5102808;28;20242;-60
2021/05/22 07:23:52;;;;;;;3.87;2.37;;;;;;;-144.99;68.11;52329.88;5105704;28;21131;-63
2021/05/22 07:26:21;;;;;;;1.63;0.93;;;;;;;-144.99;68.55;52301.34;5102747;28;20200;-63
2021/05/22 07:28:54;;;;;;;7.57;2.37;;;;;;;-144.99;68.39;52338.03;5105837;28;20195;-63
2021/05/22 07:31:20;;;;;;;4.13;1.53;;;;;;;-144.99;68.63;52321.72;5106660;28;20203;-64
2021/05/22 07:33:49;;;;;;;6.80;1.67;;;;;;;-144.99;68.16;52301.34;5104297;28;20226;-64
2021/05/22 07:36:15;;;;;;;5.80;1.70;;;;;;;-144.99;69.59;52317.66;5105697;28;20277;-63
2021/05/22 07:38:41;;;;;;;4.83;2.20;;;;;;;-144.99;69.59;52280.97;5101080;28;20223;-65
2021/05/22 07:41:11;;;;;;;4.30;1.30;;;;;;;-144.99;71.07;52307.47;5098616;28;20211;-64
2021/05/22 07:43:43;;;;;;;7.73;2.33;;;;;;;-144.99;73.55;52354.34;5101824;28;20215;-64
2021/05/22 07:46:12;;;;;;;3.70;1.67;;;;;;;-144.99;73.00;52350.25;5103566;28;20203;-63
2021/05/22 07:48:38;;;;;;;1.00;0.48;;;;;;;-144.99;72.19;52340.06;4389133;28;10021501;-62
2021/05/22 07:51:07;;;;;;;4.47;2.33;;;;;;;-144.99;73.59;52297.25;5100881;28;20867;-62
2021/05/22 07:53:35;;;;;;;3.73;1.37;;;;;;;-144.99;72.54;52378.78;5096262;28;20273;-64
2021/05/22 07:56:04;;;;;;;8.50;1.83;;;;;;;-144.99;72.81;52362.50;5101710;28;20229;-63
2021/05/22 07:58:34;;;;;;;8.23;1.40;;;;;;;-144.99;73.39;52333.94;5101973;28;20490;-63
2021/05/22 08:01:00;;;;;;;8.80;1.77;;;;;;;-144.99;71.30;52362.50;5101555;28;20223;-64
2021/05/22 08:03:29;;;;;;;5.00;1.00;;;;;;;-144.99;72.37;52319.69;5098077;28;20212;-62
2021/05/22 08:05:58;;;;;;;4.23;1.10;;;;;;;-144.99;72.06;52362.50;5091885;28;20223;-65
2021/05/22 08:08:26;;;;;;;4.97;1.47;;;;;;;-144.99;72.10;52352.28;5103335;28;20241;-62
2021/05/22 08:10:53;;;;;;;4.37;1.50;;;;;;;-144.99;73.65;52336.00;5095921;28;20199;-66
2021/05/22 08:13:29;;;;;;;6.53;1.40;;;;;;;-144.99;75.21;52342.09;5091688;28;20212;-64
2021/05/22 08:15:56;;;;;;;5.30;1.83;;;;;;;-144.99;75.51;52309.50;5096272;28;20263;-64
2021/05/22 08:18:25;;;;;;;3.57;1.30;;;;;;;-144.99;76.25;52374.72;5090157;28;20239;-63
2021/05/22 08:20:53;;;;;;;5.30;1.57;;;;;;;-144.99;76.86;52317.66;5103634;28;20207;-64
2021/05/22 08:23:25;;;;;;;3.53;1.20;;;;;;;-144.99;78.57;52346.19;5102845;28;20207;-64
2021/05/22 08:25:51;;;;;;;4.17;1.63;;;;;;;-144.99;79.16;52370.63;5094188;28;20208;-63
2021/05/22 08:28:21;;;;;;;6.33;1.83;;;;;;;-144.99;79.36;52338.03;5101908;28;20281;-62
2021/05/22 08:30:54;;;;;;;2.60;1.37;;;;;;;-144.99;79.05;52325.81;5100778;28;20645;-63
2021/05/22 08:33:24;;;;;;;6.20;1.00;;;;;;;-144.99;81.26;52386.94;5107163;28;20203;-64
2021/05/22 08:35:50;;;;;;;3.90;2.03;;;;;;;-144.99;80.52;52391.03;5107166;28;20282;-63
2021/05/22 08:38:18;;;;;;;3.17;2.03;;;;;;;-144.99;80.61;52358.41;5102871;28;20239;-64
2021/05/22 08:40:45;;;;;;;5.80;2.03;;;;;;;-144.99;81.63;52348.22;5106148;28;20203;-64
2021/05/22 08:43:11;;;;;;;3.27;1.17;;;;;;;-144.99;82.39;52372.69;5105362;28;20215;-71
2021/05/22 08:45:38;;;;;;;8.50;1.70;;;;;;;-144.99;84.27;52364.53;5105975;28;20219;-67
2021/05/22 08:48:10;;;;;;;4.87;1.43;;;;;;;-144.99;85.49;52342.09;5103318;28;20220;-68
2021/05/22 08:50:37;;;;;;;3.77;1.63;;;;;;;-144.99;86.12;52327.84;5098902;28;20216;-69
2021/05/22 08:53:06;;;;;;;5.10;1.53;;;;;;;-144.99;86.65;52342.09;5096524;28;20733;-68
2021/05/22 08:55:32;;;;;;;7.23;1.80;;;;;;;-144.99;87.74;52358.41;5099211;28;20715;-68
2021/05/22 08:57:58;;;;;;;6.07;1.33;;;;;;;-144.99;87.70;52374.72;5097253;27;20744;-68
2021/05/22 09:00:37;;;;;;;6.77;1.60;;;;;;;-144.99;88.35;52354.34;5096435;28;20203;-67
2021/05/22 09:03:06;;;;;;;9.13;1.80;;;;;;;-144.99;88.62;52370.63;5103732;28;20204;-67
2021/05/22 09:05:36;;;;;;;3.37;1.33;;;;;;;-144.99;89.48;52325.81;5094487;28;20677;-68
2021/05/22 09:08:05;;;;;;;5.67;1.30;;;;;;;-144.99;89.57;52342.09;5097514;28;20238;-69
2021/05/22 09:10:33;;;;;;;5.43;1.83;;;;;;;-144.99;88.58;52358.41;5096313;28;20753;-67
2021/05/22 09:13:07;;;;;;;3.47;1.30;;;;;;;-144.99;89.76;52333.94;5092794;28;20219;-68
2021/05/22 09:15:37;;;;;;;3.77;3.40;;;;;;;-144.99;90.04;52358.41;5104098;28;20235;-67
2021/05/22 09:18:05;;;;;;;3.20;1.50;;;;;;;-144.99;90.14;52342.09;5103783;28;20235;-67
2021/05/22 09:20:36;;;;;;;8.33;2.00;;;;;;;-144.99;90.57;52354.34;5107169;28;20219;-67
2021/05/22 09:23:08;;;;;;;4.87;1.47;;;;;;;-144.99;90.33;52366.56;5107726;28;20200;-69
2021/05/22 09:25:38;;;;;;;7.37;1.80;;;;;;;-144.99;90.65;52350.25;5103232;28;20212;-68
2021/05/22 09:28:05;;;;;;;3.23;1.50;;;;;;;-144.99;90.25;52362.50;5100784;28;20306;-68
2021/05/22 09:30:32;;;;;;;3.27;1.43;;;;;;;-144.99;90.79;52358.41;5099046;27;20205;-67
2021/05/22 09:33:02;;;;;;;3.27;1.47;;;;;;;-144.99;90.97;52395.09;5098189;27;20210;-67
2021/05/22 09:35:31;;;;;;;3.60;1.20;;;;;;;-144.99;91.11;52362.50;5100533;28;20288;-67
2021/05/22 09:38:01;;;;;;;10.93;3.77;;;;;;;-144.99;91.09;52331.91;5097590;28;20219;-68
2021/05/22 09:40:32;;;;;;;5.57;2.37;;;;;;;-144.99;93.09;52321.72;5096040;28;20472;-67
2021/05/22 09:43:00;;;;;;;6.20;1.50;;;;;;;-144.99;92.66;52311.53;5096686;28;20203;-67
2021/05/22 09:45:32;;;;;;;2.87;1.37;;;;;;;-144.99;93.96;52325.81;5096191;28;20560;-68
2021/05/22 09:48:09;;;;;;;4.10;1.40;;;;;;;-144.99;92.25;52325.81;5096871;28;20237;-68
2021/05/22 09:50:38;;;;;;;3.63;1.57;;;;;;;-144.99;93.63;52354.34;5102900;28;20215;-68
2021/05/22 09:53:23;;;;;;;4.70;1.77;;;;;;;-144.99;94.04;52325.81;5105544;28;20204;-68
2021/05/22 09:56:17;;;;;;;3.40;1.40;;;;;;;-144.99;93.86;52342.09;5105669;28;20215;-68
2021/05/22 09:58:45;;;;;;;5.90;2.60;;;;;;;-144.99;94.45;52340.06;5096679;28;20227;-68
2021/05/22 10:01:15;;;;;;;4.53;1.90;;;;;;;-144.99;94.19;52354.34;5107147;28;20203;-68
2021/05/22 10:03:42;;;;;;;4.50;1.90;;;;;;;-144.99;95.23;52329.88;5095467;28;20212;-68
2021/05/22 10:06:08;;;;;;;3.43;1.87;;;;;;;-144.99;95.35;52354.34;5096708;28;20253;-68
2021/05/22 10:08:38;;;;;;;5.93;1.60;;;;;;;-144.99;94.92;52346.19;5101677;28;20742;-67
2021/05/22 10:11:04;;;;;;;6.43;2.03;;;;;;;-144.99;95.31;52386.94;5107441;28;20250;-69
2021/05/22 10:13:35;;;;;;;4.33;2.07;;;;;;;-144.99;94.78;52350.25;5104711;28;20704;-68
2021/05/22 10:16:02;;;;;;;3.73;2.00;;;;;;;-144.99;95.98;52354.34;5099703;28;20211;-67
2021/05/22 10:18:31;;;;;;;5.43;3.33;;;;;;;-144.99;95.98;52356.38;5097863;28;20231;-69
2021/05/22 10:21:01;;;;;;;4.23;1.03;;;;;;;-144.99;95.66;52395.09;5102623;28;20283;-69
2021/05/22 10:23:27;;;;;;;2.80;1.80;;;;;;;-144.99;95.83;52327.84;5102796;28;20211;-67
2021/05/22 10:25:55;;;;;;;7.83;1.87;;;;;;;-144.99;95.67;52362.50;5100177;28;20218;-68
2021/05/22 10:28:22;;;;;;;2.77;2.20;;;;;;;-144.99;96.16;52350.25;5098941;28;20234;-67
2021/05/22 10:30:50;;;;;;;7.13;5.67;;;;;;;-144.99;95.41;52358.41;5092461;28;20249;-67
2021/05/22 10:33:17;;;;;;;4.83;1.20;;;;;;;-144.99;95.38;52378.78;5102919;28;20425;-67
2021/05/22 10:35:48;;;;;;;3.07;1.10;;;;;;;-144.99;96.08;52360.44;5101810;28;20314;-67
2021/05/22 10:38:42;;;;;;;5.40;1.53;;;;;;;-144.99;95.46;52346.19;5098239;28;20223;-68
2021/05/22 10:41:11;;;;;;;4.23;1.87;;;;;;;-144.99;95.06;52362.50;5095785;28;20208;-68
2021/05/22 10:43:46;;;;;;;3.50;1.30;;;;;;;-144.99;95.51;52395.09;5099429;28;20286;-69
2021/05/22 10:46:14;;;;;;;3.43;1.50;;;;;;;-144.99;94.98;52350.25;5100350;28;20203;-69
2021/05/22 10:49:00;;;;;;;1.83;1.47;;;;;;;-144.99;94.27;52362.50;5101550;28;20579;-67
2021/05/22 10:51:44;;;;;;;6.67;1.63;;;;;;;-144.99;93.33;52346.19;5102929;28;20242;-68
2021/05/22 10:54:14;;;;;;;3.43;1.57;;;;;;;-144.99;94.10;52362.50;5100471;28;20723;-68
2021/05/22 10:56:59;;;;;;;2.70;1.20;;;;;;;-144.99;94.14;52321.72;5101911;28;20227;-67
2021/05/22 10:59:25;;;;;;;9.27;2.23;;;;;;;-144.99;94.64;52354.34;5102078;28;20221;-67
2021/05/22 11:01:55;;;;;;;2.80;1.43;;;;;;;-144.99;95.39;52313.56;5106610;28;20700;-69
2021/05/22 11:04:32;;;;;;;4.30;2.40;;;;;;;-144.99;96.31;52342.09;5107422;28;20685;-69
2021/05/22 11:07:17;;;;;;;2.73;1.93;;;;;;;-144.99;97.01;52358.41;5099757;28;20283;-67
2021/05/22 11:09:52;;;;;;;3.53;1.67;;;;;;;-144.99;97.27;52350.25;5100899;28;20214;-67
2021/05/22 11:12:46;;;;;;;6.23;2.27;;;;;;;-144.99;96.66;52325.81;5107458;28;20198;-68
2021/05/22 11:15:47;;;;;;;3.47;2.40;;;;;;;-144.99;96.77;52370.63;5101324;28;20274;-68
2021/05/22 11:18:23;;;;;;;1.90;1.33;;;;;;;-144.99;97.60;52301.34;5095167;28;20231;-69
2021/05/22 11:21:19;;;;;;;3.13;1.53;;;;;;;-144.99;97.80;52325.81;5100978;28;20280;-66
2021/05/22 11:24:09;;;;;;;7.50;3.60;;;;;;;-144.99;97.91;52293.19;5105715;28;20235;-67
2021/05/22 11:27:07;;;;;;;3.93;2.60;;;;;;;-144.99;98.87;52329.88;5101198;28;20300;-69
2021/05/22 11:29:52;;;;;;;5.60;3.17;;;;;;;-144.99;98.63;52317.66;5103694;28;20222;-66
2021/05/22 11:32:53;;;;;;;7.70;2.47;;;;;;;-144.99;99.08;52356.38;5104544;28;20350;-67